Observations for Trim Market St
| Time | AQI | Temp °C | Hum % | Pres Pa | CO μg/m³ | H₂S μg/m³ | NO μg/m³ | NO₂ μg/m³ | O₃ μg/m³ | SO₂ μg/m³ | PM1 μg/m³ | PM2.5 μg/m³ | PM10 μg/m³ |
|---|---|---|---|---|---|---|---|---|---|---|---|---|---|
| Wednesday 8 July 2026 | |||||||||||||
| 16:51 | 1 | 38.7 | 29 | 66,937 | 0 | 14.25 | 0 | 11.37 | 8.01 | 4.76 | 3.56 | 8.27 | 9.27 |
| 16:50 | 1 | 38.6 | 29 | 66,920 | 0 | 17.65 | 0 | 11.98 | 10.58 | 5.19 | 3.56 | 8.26 | 9.27 |
| 16:49 | 1 | 38.4 | 29 | 66,930 | 0 | 20.35 | 0 | 12.52 | 8.99 | 5.06 | 2.85 | 6.62 | 6.65 |
| 16:46 | 1 | 38 | 29 | 66,910 | 0 | 27.63 | 0 | 14.49 | 3.51 | 5.64 | 4.28 | 9.32 | 11 |
| 16:44 | 1 | 38 | 29 | 66,918 | 0 | 30.2 | 0 | 16.42 | 11.72 | 5.88 | 4.28 | 8.79 | 10.13 |
| 16:43 | 1 | 38 | 29 | 66,914 | 0 | 31.72 | 0 | 14.83 | 10.43 | 6.6 | 3.56 | 8.25 | 9.27 |
| 16:39 | 1 | 38.3 | 29 | 66,961 | 0.61 | 40.64 | 0 | 19.08 | 1.3 | 6.77 | 4.28 | 7.18 | 7.52 |
| 16:37 | 1 | 38.4 | 28 | 66,963 | 0 | 27.48 | 0 | 13.89 | 7.55 | 6.71 | 4.99 | 9.38 | 11.02 |
| 16:32 | 1 | 39 | 28 | 67,047 | 0 | 37.3 | 0 | 17.2 | 1.02 | 7.34 | 2.14 | 6.68 | 7.52 |
| 16:31 | 1 | 39.2 | 28 | 67,063 | 0 | 25.88 | 0 | 12.76 | 9.54 | 7.47 | 2.85 | 6.69 | 7.52 |
| 16:30 | 1 | 39.3 | 27 | 67,084 | 0 | 34.04 | 0 | 14.26 | 4.7 | 7.77 | 3.56 | 7.25 | 7.52 |
| 16:29 | 1 | 39.4 | 27 | 67,084 | 0 | 30.83 | 0 | 21.36 | 0 | 6.57 | 1.43 | 6.16 | 6.78 |
| 16:28 | 1 | 39.6 | 27 | 67,076 | 0 | 28.01 | 0 | 10.91 | 7.94 | 8.11 | 2.85 | 6.72 | 7.39 |
| 16:27 | 1 | 39.7 | 27 | 67,092 | 0 | 23.33 | 0 | 7.09 | 11 | 8.21 | 2.14 | 6.17 | 6.64 |
| 16:26 | 1 | 39.8 | 27 | 67,112 | 0 | 29.41 | 0 | 11.57 | 7.61 | 8.16 | 2.14 | 6.17 | 6.64 |
| 16:24 | 1 | 40 | 27 | 67,094 | 0 | 26.02 | 0 | 15.14 | 6.01 | 7.3 | 2.85 | 7.83 | 8.41 |
| 16:22 | 1 | 40.1 | 27 | 67,106 | 0 | 28.04 | 0 | 13.11 | 6.34 | 7.7 | 2.85 | 6.73 | 7.41 |
| 16:17 | 1 | 40.5 | 26 | 67,139 | 0 | 31.4 | 0 | 13.67 | 6.06 | 8 | 2.14 | 5.67 | 6.23 |
| 16:16 | 1 | 40.5 | 26 | 67,165 | 0 | 36.81 | 0 | 15.47 | 6.45 | 8.57 | 3.56 | 6.76 | 7.44 |
| 16:15 | 1 | 40.6 | 26 | 67,145 | 0 | 24.51 | 0 | 5.46 | 7.61 | 8.93 | 4.99 | 7.87 | 9.3 |